DOBRY DZIK
Huntrun Kozienice
Organizator : ALOHA EVENTY sp. z o.o.
Data : 2022-06-05
Miejsce : Kozienice
Dystans : 6 km
Zgłoszonych : 597
Wystartowało : 533
Nie ukończyło : 1
Ukończyło : 532
Na trasie : 1
Pełne wyniki :
Uproszczone :
Klasyfikacje w punktach pomiarowych: Start | Meta
Klasyfikacje wg kategorii: Wszyscy | Open - Kobiety | Open - Mężczyźni | Drużynowa | 09:00 | 09:30 | 10:00 | 10:30 | 11:00 | 11:30 | 12:00 | 12:30 | 13:00
Klasyfikacja wg czasu brutto. Wyniki nieoficjalne !!!
MscZawodnikNumerKlubMiejscowośćKrajKategoriaMkatK/MFalaDrużyna 1Czas startuCzas
netto
6km
Czas
brutto
6km
Różn.Tempo
min/km
Tempo
km/h
         
1REPELEWSKA Krista 828Open - Kobiety1K 111:30OLIMPIJSKI DZIESIĘCIOBÓJ LUBELSKI00:00:0000:53:47.5500:53:47.55 8:576,7
2NOWAK Katarzyna 868Open - Kobiety2K 212:00 00:00:0000:57:06.2000:57:06.20+00:03:189:316,3
3KONOBRODZKA Iza 659Open - Kobiety3K 310:30ZA ROK BĘDZIE LEPIEJ 00:00:0000:57:14.1000:57:14.10+00:03:269:326,3
4WÓJCIK Żaneta 801Open - Kobiety4K 411:0000:00:0001:00:29.4001:00:29.40+00:06:4110:046,0
5ŚLIWIŃSKA Weronika 924Open - Kobiety5K 512:00PIĘKNY i BESTIA00:00:0001:01:17.1501:01:17.15+00:07:2910:125,9
6GROMADZKA Agnieszka 956Open - Kobiety6K 613:00BALONY00:00:0001:01:25.0501:01:25.05+00:07:3710:145,9
7CHRZANOWSKA Małgorzata 564Open - Kobiety7K 710:00ANULE00:00:0001:03:17.4001:03:17.40+00:09:2910:325,7
8NIECIECKA Aleksandra 1005Open - Kobiety8K 809:00 00:00:0001:04:37.9501:04:37.95+00:10:5010:465,6
9DEPUTAT Iwona 1015Open - Kobiety9K 909:00 00:00:0001:04:42.4501:04:42.45+00:10:5410:475,6
10PISULA Justyna 1020Open - Kobiety10K 1009:00 00:00:0001:04:45.0001:04:45.00+00:10:5710:475,6
11KAWĘCKA-KRZYSZTOFIAK Małgorzata 953Open - Kobiety11K 1112:3000:00:0001:05:28.5501:05:28.55+00:11:4110:545,5
12WROBEL Karolina 313Open - Kobiety12K 1212:0000:00:0001:06:09.7001:06:09.70+00:12:2211:015,4
13BOBRYK-MAMCZARZ Aneta 855Open - Kobiety13K 1311:30OLIMPIJSKI DZIESIĘCIOBÓJ LUBELSKI00:00:0001:06:35.1501:06:35.15+00:12:4711:055,4
14MICHOWSKA Anna Ewa 814Open - Kobiety14K 1411:30OLIMPIJSKI DZIESIĘCIOBÓJ LUBELSKI00:00:0001:06:54.2001:06:54.20+00:13:0611:095,4
15ŻUK Agata 861Open - Kobiety15K 1511:30OLIMPIJSKI DZIESIĘCIOBÓJ LUBELSKI00:00:0001:07:42.8501:07:42.85+00:13:5511:175,3
16ŻUK Wiktoria 854Open - Kobiety16K 1611:30OLIMPIJSKI DZIESIĘCIOBÓJ LUBELSKI00:00:0001:07:44.2501:07:44.25+00:13:5611:175,3
17PADEWSKA Patrycja 842Open - Kobiety17K 1711:30 00:00:0001:08:10.8501:08:10.85+00:14:2311:215,3
18ŁOBODZIN Wiktoria 1125Open - Kobiety18K 1809:3000:00:0001:08:17.9501:08:17.95+00:14:3011:225,3
19ŚWIERBUTOWICZ KAWALEC Anna 862Open - Kobiety19K 1911:30OLIMPIJSKI DZIESIĘCIOBÓJ LUBELSKI00:00:0001:08:19.6501:08:19.65+00:14:3211:235,3
20KWIECIŃSKA Anna 557Open - Kobiety20K 2010:00ANULE00:00:0001:08:23.9001:08:23.90+00:14:3611:235,3
21SARAD Sabina 1137Open - Kobiety21K 2109:00SPARTAŃSKA DZICZ00:00:0001:08:49.3501:08:49.35+00:15:0111:285,2
22MAROŃ Dorota 583Open - Kobiety22K 2210:00QUEENS00:00:0001:09:42.8001:09:42.80+00:15:5511:375,2
23MROZEK Katarzyna 767Open - Kobiety23K 2311:00 00:00:0001:10:03.0501:10:03.05+00:16:1511:405,1
24PRETKO Elżbieta 817Open - Kobiety24K 2411:30DZIKUSKI00:00:0001:10:11.0001:10:11.00+00:16:2311:415,1
25ŚWITKA Magdalena 832Open - Kobiety25K 2511:30DZIKUSKI00:00:0001:10:11.1001:10:11.10+00:16:2311:415,1
26OLIZAROWSKA Asia 1008Open - Kobiety26K 2609:00 00:00:0001:10:16.1501:10:16.15+00:16:2811:425,1
27GÓRCZYŃSKA Stella 623Open - Kobiety27K 2710:00CYTRYNOWA TEAM00:00:0001:10:57.1001:10:57.10+00:17:0911:495,1
28WITASZCZYK Ewelina 889Open - Kobiety28K 2812:30 00:00:0001:11:56.7501:11:56.75+00:18:0911:595,0
29WIŚNIOS Ilona 893Open - Kobiety29K 2912:00LWR00:00:0001:12:02.3001:12:02.30+00:18:1412:005,0
30CHOROS Karolina 1093Open - Kobiety30K 3009:3000:00:0001:12:09.6501:12:09.65+00:18:2212:015,0
31WÓJCIK Magda 864Open - Kobiety31K 3111:30 00:00:0001:12:53.5001:12:53.50+00:19:0512:084,9
32DRĄGOWWSKA Weronika 925Open - Kobiety32K 3212:0000:00:0001:12:59.1001:12:59.10+00:19:1112:094,9
33ROLAK Joanna 999Open - Kobiety33K 3309:00DZIKA FURIA00:00:0001:13:23.3501:13:23.35+00:19:3512:134,9
34PYC Monika 1040Open - Kobiety34K 3409:00 00:00:0001:13:35.3001:13:35.30+00:19:4712:154,9
35KROGULEC Olga 606Open - Kobiety35K 3510:00 00:00:0001:14:13.1001:14:13.10+00:20:2512:224,9
36MOLENDA Katarzyna 594Open - Kobiety36K 3610:00QUEENS00:00:0001:14:14.9001:14:14.90+00:20:2712:224,8
37CICHOCKA Aleksandra 873Open - Kobiety37K 3712:00 00:00:0001:15:04.6501:15:04.65+00:21:1712:304,8
38PEDRYC Malgorzata 775Open - Kobiety38K 3811:00PIĘKNI I BESTIE00:00:0001:15:08.4001:15:08.40+00:21:2012:314,8
39POWROŹNIK Monika 1041Open - Kobiety39K 3909:00RSTECHNOLOGY00:00:0001:15:33.3001:15:33.30+00:21:4512:354,8
40DOLEGA Anna 558Open - Kobiety40K 4010:00ANULE00:00:0001:15:35.9501:15:35.95+00:21:4812:354,8
41WALANUS Agnieszka 1135Open - Kobiety41K 4109:0000:00:0001:16:19.8501:16:19.85+00:22:3212:434,7
42KĘCZKOWSKA Marlena 1105Open - Kobiety42K 4209:3000:00:0001:16:33.8001:16:33.80+00:22:4612:454,7
43SUSKA Joanna 1090Open - Kobiety43K 4309:3000:00:0001:16:35.2001:16:35.20+00:22:4712:454,7
44SEREDYN Joanna 1018Open - Kobiety44K 4409:00 00:00:0001:16:35.4501:16:35.45+00:22:4712:454,7
45KORTUS Kamila 1022Open - Kobiety45K 4509:00 00:00:0001:16:35.9001:16:35.90+00:22:4812:454,7
46MILER-PODGAJNA Aleksandra 813Open - Kobiety46K 4611:30OLIMPIJSKI DZIESIĘCIOBÓJ LUBELSKI00:00:0001:17:01.1001:17:01.10+00:23:1312:504,7
47SLUPEK Beata 882Open - Kobiety47K 4712:30TEAM DWA OGNIE WARSZAWA00:00:0001:17:11.5501:17:11.55+00:23:2412:514,7
48KRZYSZTOFIK Justyna 589Open - Kobiety48K 4810:00 00:00:0001:17:26.3001:17:26.30+00:23:3812:544,6
49SOSIEDKO Maryna 1134Open - Kobiety49K 4912:30DZIKI ELKOM00:00:0001:17:26.5501:17:26.55+00:23:3912:544,6
50GUZEK Agnieszka 556Open - Kobiety50K 5010:00 00:00:0001:17:27.6501:17:27.65+00:23:4012:544,6
51KLOGE Agata 740Open - Kobiety51K 5111:00 00:00:0001:17:39.5501:17:39.55+00:23:5212:564,6
52SMOLIŃSKA Iwona 1133Open - Kobiety52K 5210:0000:00:0001:17:45.1001:17:45.10+00:23:5712:574,6
53FRAIS-LIGAJ Agnieszka 1072Open - Kobiety53K 5309:30NOLIMITS00:00:0001:18:42.2001:18:42.20+00:24:5413:074,6
54SZCZEPAŃSKA Emilia 1154Open - Kobiety54K 5412:0000:00:0001:19:10.9501:19:10.95+00:25:2313:114,5
55POSTUŁA Magdalena 773Open - Kobiety55K 5511:00 00:00:0001:19:14.0001:19:14.00+00:25:2613:124,5
56SIELWANOWSKA Elżbieta 747Open - Kobiety56K 5611:00 00:00:0001:19:16.6501:19:16.65+00:25:2913:124,5
57GRAŚ Elżbieta 645Open - Kobiety57K 5710:30 00:00:0001:19:17.3501:19:17.35+00:25:2913:124,5
58WASA Karolina 1064Open - Kobiety58K 5809:00 00:00:0001:19:22.1001:19:22.10+00:25:3413:134,5
59SZYMANEK Bernadetta 744Open - Kobiety59K 5911:00RAJANKI00:00:0001:20:17.3001:20:17.30+00:26:2913:224,5
60SŁONOPAS Magdalena 1030Open - Kobiety60K 6009:00 00:00:0001:20:25.4001:20:25.40+00:26:3713:244,5
61RELIGA Lila 978Open - Kobiety61K 6113:00 00:00:0001:20:48.7001:20:48.70+00:27:0113:284,5
62KUCZYŃSKA Aleksandra 624Open - Kobiety62K 6210:30PARAPAPAPA00:00:0001:20:59.4501:20:59.45+00:27:1113:294,4
63MĄKOSA-RUSEK Izabela 757Open - Kobiety63K 6311:00AMATORZY00:00:0001:21:04.2501:21:04.25+00:27:1613:304,4
64KOPEĆ Jolanta 763Open - Kobiety64K 6411:00AMATORZY00:00:0001:21:05.8001:21:05.80+00:27:1813:304,4
65MORTAS Agnieszka 755Open - Kobiety65K 6511:0000:00:0001:21:06.5501:21:06.55+00:27:1913:314,4
66PRZYBYSZEWSKA Barbara 743Open - Kobiety66K 6611:00AMATORZY00:00:0001:21:08.5501:21:08.55+00:27:2113:314,4
67STANIEC Monika 841Open - Kobiety67K 6711:30OLIMPIJSKI DZIESIĘCIOBÓJ LUBELSKI00:00:0001:21:11.3001:21:11.30+00:27:2313:314,4
68URBAN Jolanta 1091Open - Kobiety68K 6809:3000:00:0001:21:12.6001:21:12.60+00:27:2513:324,4
69DUWADZIŃSKA Justyna 1092Open - Kobiety69K 6909:3000:00:0001:21:12.6501:21:12.65+00:27:2513:324,4
70RAJCZYK Ewa 749Open - Kobiety70K 7011:00 00:00:0001:21:20.2501:21:20.25+00:27:3213:334,4
71SWAT Aneta 741Open - Kobiety71K 7111:00 00:00:0001:21:20.6501:21:20.65+00:27:3313:334,4
72KOWALCZYK Weronika 713Open - Kobiety72K 7210:30KCAL OF DUTY00:00:0001:21:24.1001:21:24.10+00:27:3613:344,4
73ZERA Anna 875Open - Kobiety73K 7312:00 00:00:0001:21:32.9501:21:32.95+00:27:4513:354,4
74PTAK Anita 931Open - Kobiety74K 7412:0000:00:0001:21:33.1001:21:33.10+00:27:4513:354,4
75LECH Ewa 968Open - Kobiety75K 7512:30ALOSHKI WARKA00:00:0001:21:55.5501:21:55.55+00:28:0813:394,4
76ULIJASZ Aneta 960Open - Kobiety76K 7612:30ALOSHKI WARKA00:00:0001:21:56.1501:21:56.15+00:28:0813:394,4
76OGONOWSKA Kinga 975Open - Kobiety76K 7612:30ALOSHKI WARKA00:00:0001:21:56.1501:21:56.15+00:28:0813:394,4
76ZARZYCKA Magdalena 981Open - Kobiety76K 7612:30ALOSHKI WARKA00:00:0001:21:56.1501:21:56.15+00:28:0813:394,4
79TULO Anna 961Open - Kobiety79K 7912:30ALOSHKI WARKA00:00:0001:21:56.3501:21:56.35+00:28:0813:394,4
80OSTASZ Alicja 571Open - Kobiety80K 8010:00 00:00:0001:22:14.7501:22:14.75+00:28:2713:424,4
81MIANOWANA Anna 572Open - Kobiety81K 8110:00ISKRY00:00:0001:22:20.1001:22:20.10+00:28:3213:434,4
82KUZIUK Beata 577Open - Kobiety82K 8210:00ISKRY00:00:0001:22:20.1501:22:20.15+00:28:3213:434,4
83POPŁAWSKA Karolina 671Open - Kobiety83K 8310:30WĘDROWCY 00:00:0001:22:30.6001:22:30.60+00:28:4313:454,4
84STACHURSKA Emilia 646Open - Kobiety84K 8410:30 00:00:0001:22:31.0501:22:31.05+00:28:4313:454,4
85KOWALCZYK Gabriela 654Open - Kobiety85K 8510:30KCAL OF DUTY00:00:0001:22:32.5501:22:32.55+00:28:4513:454,4
86KAMIŃSKA Iza 658Open - Kobiety86K 8610:30KCAL OF DUTY00:00:0001:22:35.3501:22:35.35+00:28:4713:454,4
87NOWAK Izabela 630Open - Kobiety87K 8710:3000:00:0001:22:38.2001:22:38.20+00:28:5013:464,4
88KWAŚNIK Joanna 666Open - Kobiety88K 8810:30ROZPĘDZENI00:00:0001:22:43.4001:22:43.40+00:28:5513:474,4
89CZARCZYŃSKA Ewa 649Open - Kobiety89K 8910:30 00:00:0001:22:43.5501:22:43.55+00:28:5613:474,4
90RYCHTA Kasia 1095Open - Kobiety90K 9009:3000:00:0001:22:47.5501:22:47.55+00:29:0013:474,3
91BOGUCKA Agata 1071Open - Kobiety91K 9109:30 00:00:0001:22:48.7001:22:48.70+00:29:0113:484,3
92BŁAGOWIESZCZEŃSKA Maria 602Open - Kobiety92K 9210:00BŁAGUSIE.PL00:00:0001:23:06.6001:23:06.60+00:29:1913:514,3
93MAKULEC-SOBOTA Monika 695Open - Kobiety93K 9310:30 00:00:0001:23:06.8001:23:06.80+00:29:1913:514,3
94BOLEK Małgorzata 681Open - Kobiety94K 9410:30ROZPĘDZENI00:00:0001:23:07.1501:23:07.15+00:29:1913:514,3
95OKRÓJ Martyna 688Open - Kobiety95K 9510:30ROZPĘDZENI00:00:0001:23:07.2001:23:07.20+00:29:1913:514,3
96SETLA Dominika 746Open - Kobiety96K 9611:00 00:00:0001:23:32.9001:23:32.90+00:29:4513:554,3
97MOMOTKO Gosia 750Open - Kobiety97K 9711:00 00:00:0001:23:34.6001:23:34.60+00:29:4713:554,3
98JANECZEK Patrycja 986Open - Kobiety98K 9813:00 00:00:0001:24:07.7001:24:07.70+00:30:2014:014,3
99JANECZEK Justyna 971Open - Kobiety99K 9913:00 00:00:0001:24:08.3501:24:08.35+00:30:2014:014,3
100CELEJ Klaudia 977Open - Kobiety100K 10013:00ARIZONA00:00:0001:24:32.0001:24:32.00+00:30:4414:054,3
101KWIECIEŃ Karolina 955Open - Kobiety101K 10111:0000:00:0001:24:32.5001:24:32.50+00:30:4414:054,3
102KOSOWSKA Honorata 752Open - Kobiety102K 10211:00HASAJĄCE ZAJĄCE00:00:0001:24:44.1501:24:44.15+00:30:5614:074,2
103SZATAN Weronika 798Open - Kobiety103K 10311:00DOMKI W SŁUPSKU00:00:0001:24:48.0001:24:48.00+00:31:0014:084,2
104CHOLEWIŃSKA Małgorzata 776Open - Kobiety104K 10411:00 00:00:0001:24:48.4001:24:48.40+00:31:0014:084,2
105KASZUBA Małgorzata 682Open - Kobiety105K 10510:30 00:00:0001:25:03.7001:25:03.70+00:31:1614:104,2
106DABIŃSKA Wiktoria 799Open - Kobiety106K 10611:00 00:00:0001:25:07.7501:25:07.75+00:31:2014:114,2
107KRÓL Bożena 816Open - Kobiety107K 10711:30 00:00:0001:25:10.3501:25:10.35+00:31:2214:114,2
108KRÓWCZYŃSKA Barbara 815Open - Kobiety108K 10811:30 00:00:0001:25:13.9501:25:13.95+00:31:2614:124,2
109SZARA Martyna 782Open - Kobiety109K 10911:00 00:00:0001:25:17.1501:25:17.15+00:31:2914:124,2
110BŁASZCZYK Agnieszka 633Open - Kobiety110K 11010:30 00:00:0001:25:26.4001:25:26.40+00:31:3814:144,2
111MACIAK Ewa 650Open - Kobiety111K 11110:30MACIAK TEAM00:00:0001:26:11.6501:26:11.65+00:32:2414:214,2
112BOREK Marzena 783Open - Kobiety112K 11211:00 00:00:0001:26:13.0001:26:13.00+00:32:2514:224,2
113KOWALCZYK Ewelina 653Open - Kobiety113K 11313:00 00:00:0001:26:21.3001:26:21.30+00:32:3314:234,2
114CIEŚLAK Katarzyna 592Open - Kobiety114K 11410:00MAG00:00:0001:26:26.8001:26:26.80+00:32:3914:244,2
115GAĆ Anna 573Open - Kobiety115K 11510:00MAG00:00:0001:26:28.1001:26:28.10+00:32:4014:244,2
116TRYNGIEL-KOCBUCH Karolina 591Open - Kobiety116K 11610:00MAG00:00:0001:26:28.4001:26:28.40+00:32:4014:244,2
117BARTNICKA Ewelina 890Open - Kobiety117K 11712:00 00:00:0001:26:45.2501:26:45.25+00:32:5714:274,1
118ZAWRZYKRAJ Ania 716Open - Kobiety118K 11810:30 00:00:0001:26:59.1001:26:59.10+00:33:1114:294,1
119STĘPIEŃ Małgorzata 718Open - Kobiety119K 11910:3000:00:0001:26:59.5001:26:59.50+00:33:1114:294,1
120ZYSK-LISICA Paulina 934Open - Kobiety120K 12012:30TEAM DWA OGNIE WARSZAWA00:00:0001:27:04.6001:27:04.60+00:33:1714:304,1
121VANLANGENDONCK Annemarie 877Open - Kobiety121K 12112:30TEAM DWA OGNIE WARSZAWA00:00:0001:27:05.0501:27:05.05+00:33:1714:304,1
122POREDA Nina 933Open - Kobiety122K 12212:30TEAM DWA OGNIE WARSZAWA00:00:0001:27:06.5001:27:06.50+00:33:1814:314,1
123BARTOSIK Paulina 935Open - Kobiety123K 12312:30TEAM DWA OGNIE WARSZAWA00:00:0001:27:07.2501:27:07.25+00:33:1914:314,1
124BARYCKA Katarzyna 897Open - Kobiety124K 12412:30TEAM DWA OGNIE WARSZAWA00:00:0001:27:08.4001:27:08.40+00:33:2014:314,1
125KOZAK Emilia 647Open - Kobiety125K 12510:30 00:00:0001:27:14.1501:27:14.15+00:33:2614:324,1
126KWARECKA Magdalena 680Open - Kobiety126K 12610:30 00:00:0001:27:22.1501:27:22.15+00:33:3414:334,1
127HORYD Justyna 825Open - Kobiety127K 12711:30RESERVOIR DOGS00:00:0001:27:23.3001:27:23.30+00:33:3514:334,1
128ANTONIAK-BĄK Ewelina 1010Open - Kobiety128K 12809:00 00:00:0001:27:26.1501:27:26.15+00:33:3814:344,1
129KOZAK Mariola 1035Open - Kobiety129K 12909:00 00:00:0001:27:26.3501:27:26.35+00:33:3814:344,1
130GRACZ Joanna 1019Open - Kobiety130K 13009:00 00:00:0001:27:26.6001:27:26.60+00:33:3914:344,1
131NIEDŹWIEDŹ Estera 648Open - Kobiety131K 13110:30 00:00:0001:27:32.0001:27:32.00+00:33:4414:354,1
132KĘPA Anna 876Open - Kobiety132K 13212:00 00:00:0001:28:11.6001:28:11.60+00:34:2414:414,1
133ANDRZEJEWSKA Monika 914Open - Kobiety133K 13312:0000:00:0001:28:13.3501:28:13.35+00:34:2514:424,1
134KIEŁTYKA Aneta 959Open - Kobiety134K 13413:00FAJTERKI00:00:0001:28:28.2001:28:28.20+00:34:4014:444,1
134SANOCKA Małgorzata 982Open - Kobiety134K 13413:00FAJTERKI00:00:0001:28:28.2001:28:28.20+00:34:4014:444,1
136ŚLIWA Justyna 972Open - Kobiety136K 13613:00FAJTERKI00:00:0001:28:28.8001:28:28.80+00:34:4114:444,1
136CIEŚLA Agnieszka 957Open - Kobiety136K 13613:00FAJTERKI00:00:0001:28:28.8001:28:28.80+00:34:4114:444,1
138GUZ Kinga 976Open - Kobiety138K 13813:00 00:00:0001:28:28.9001:28:28.90+00:34:4114:444,1
139SOZAŃSKA Diana 966Open - Kobiety139K 13913:00FAJTERKI00:00:0001:28:29.1501:28:29.15+00:34:4114:444,1
140CHRZANOWSKA Renata 989Open - Kobiety140K 14013:00FAJTERKI00:00:0001:28:29.8001:28:29.80+00:34:4214:444,1
141OGONOWSKA Ewa 651Open - Kobiety141K 14110:30 00:00:0001:28:40.5001:28:40.50+00:34:5214:464,1
142GOŁĄBEK Aneta 1074Open - Kobiety142K 14209:30 00:00:0001:28:48.6501:28:48.65+00:35:0114:484,1
143JOHN Ludmiła 599Open - Kobiety143K 14310:00DZIKJOHN TEAM00:00:0001:28:51.1001:28:51.10+00:35:0314:484,1
144GAWĘDZKA Agata 569Open - Kobiety144K 14410:00DZIKJOHN TEAM00:00:0001:28:51.2001:28:51.20+00:35:0314:484,1
145FUSIEK Paulina 608Open - Kobiety145K 14510:00KREATYWNI00:00:0001:28:57.9501:28:57.95+00:35:1014:494,0
146MĘDREK Paulina 1113Open - Kobiety146K 14609:3000:00:0001:29:02.8001:29:02.80+00:35:1514:504,0
147ŻELASZCZYK Anna 938Open - Kobiety147K 14712:30DZIKI ELKOM00:00:0001:29:29.2501:29:29.25+00:35:4114:544,0
147UTNIK Bożena 941Open - Kobiety147K 14712:30DZIKI ELKOM00:00:0001:29:29.2501:29:29.25+00:35:4114:544,0
147ROSIEK Jolanta 946Open - Kobiety147K 14712:30DZIKI ELKOM00:00:0001:29:29.2501:29:29.25+00:35:4114:544,0
150PAWLIK Justyna 824Open - Kobiety150K 15011:30 00:00:0001:29:51.9001:29:51.90+00:36:0414:584,0
151ZIENKIEWICZ Joanna 822Open - Kobiety151K 15111:30 00:00:0001:29:52.2001:29:52.20+00:36:0414:584,0
152KUTYŁA Katarzyna 593Open - Kobiety152K 15210:00QUEENS00:00:0001:30:09.6501:30:09.65+00:36:2215:014,0
153MARKOWSKA Julia 587Open - Kobiety153K 15310:00MAG00:00:0001:30:26.4001:30:26.40+00:36:3815:044,0
154KĘPSKA Marta 781Open - Kobiety154K 15411:00 00:00:0001:30:28.1001:30:28.10+00:36:4015:044,0
155KARCZ Joanna 1017Open - Kobiety155K 15509:00 00:00:0001:30:31.7501:30:31.75+00:36:4415:054,0
156STUDZIŃSKA Dagmara 638Open - Kobiety156K 15610:30 00:00:0001:31:22.1501:31:22.15+00:37:3415:133,9
157GOGACZ Anna 635Open - Kobiety157K 15710:30 00:00:0001:31:22.4501:31:22.45+00:37:3415:133,9
158JAROSZCZYK Monika 805Open - Kobiety158K 15811:00 00:00:0001:31:43.5001:31:43.50+00:37:5515:173,9
159STĘPIEŃ Natasza 1111Open - Kobiety159K 15909:3000:00:0001:32:58.2001:32:58.20+00:39:1015:293,9
160KOPYT Magdalena 802Open - Kobiety160K 16011:00 00:00:0001:33:37.7001:33:37.70+00:39:5015:363,8
161KANDEFER Natalia 1042Open - Kobiety161K 16109:00 00:00:0001:33:49.2501:33:49.25+00:40:0115:383,8
162WAIS Natalia 1043Open - Kobiety162K 16209:00 00:00:0001:33:49.4501:33:49.45+00:40:0115:383,8
163PRZYBYLSKA Justyna 588Open - Kobiety163K 16310:00 00:00:0001:33:52.8501:33:52.85+00:40:0515:383,8
164SZCZĘSNA Magdalena 774Open - Kobiety164K 16411:00 00:00:0001:34:04.0501:34:04.05+00:40:1615:403,8
165KOKSA Karolina 1136Open - Kobiety165K 16511:0000:00:0001:34:04.1001:34:04.10+00:40:1615:403,8
166SKONECZNA Beata 578Open - Kobiety166K 16610:00 00:00:0001:34:36.4501:34:36.45+00:40:4815:463,8
167GŁOGOWSKA Izabella 561Open - Kobiety167K 16710:00ANULE00:00:0001:34:51.2501:34:51.25+00:41:0315:483,8
168OPOKA Patrycja 607Open - Kobiety168K 16810:00 00:00:0001:34:56.2501:34:56.25+00:41:0815:493,8
169BUCZEK Karolina 1094Open - Kobiety169K 16910:30SWATOWSKIE ŻBIKI00:00:0001:34:58.9001:34:58.90+00:41:1115:493,8
170BUCZEK Kinga 1096Open - Kobiety170K 17010:30SWATOWSKIE ŻBIKI00:00:0001:34:59.0001:34:59.00+00:41:1115:493,8
171MAZUR Agata 631Open - Kobiety171K 17110:3000:00:0001:35:00.0001:35:00.00+00:41:1215:503,8
172ŚRODA Karolina 563Open - Kobiety172K 17210:00ANULE00:00:0001:35:03.3001:35:03.30+00:41:1515:503,8
173NOWAKOWSKA Zuzanna 800Open - Kobiety173K 17311:00 00:00:0001:35:04.8001:35:04.80+00:41:1715:503,8
174GRZEGORCZYK Joanna 762Open - Kobiety174K 17411:00 00:00:0001:35:07.1001:35:07.10+00:41:1915:513,8
175BAMBUROWICZ Aneta 874Open - Kobiety175K 17512:00 00:00:0001:35:18.6501:35:18.65+00:41:3115:533,8
176ZIÓŁKOWSKA Justyna 1069Open - Kobiety176K 17609:00 00:00:0001:35:55.7001:35:55.70+00:42:0815:593,8
177KUBICKA Wioleta 1003Open - Kobiety177K 17709:00 00:00:0001:35:56.2501:35:56.25+00:42:0815:593,8
178BOREJ - MARMAJ Iwona 821Open - Kobiety178K 17811:30 00:00:0001:37:34.6001:37:34.60+00:43:4716:153,7
179TRUSZKOWSKA Renata 707Open - Kobiety179K 17910:30WĘDROWCY 00:00:0001:37:47.2001:37:47.20+00:43:5916:173,7
180NOWAK Elżbieta 943Open - Kobiety180K 18012:00DZIKI ELKOM00:00:0001:38:44.0501:38:44.05+00:44:5616:273,6
181OPOKA Żaneta 619Open - Kobiety181K 18110:00 00:00:0001:39:16.5001:39:16.50+00:45:2816:323,6
182TRYNDA Marcelina 906Open - Kobiety182K 18212:00SHARK TEAM 00:00:0001:39:18.6001:39:18.60+00:45:3116:333,6
183TRYNDA Elżbieta 887Open - Kobiety183K 18312:00SHARK TEAM 00:00:0001:39:18.9001:39:18.90+00:45:3116:333,6
184TYCZYŃSKA Elżbieta 644Open - Kobiety184K 18410:30 00:00:0001:39:29.1501:39:29.15+00:45:4116:343,6
185BARTOSZUK Magdalena 655Open - Kobiety185K 18510:3000:00:0001:40:37.6501:40:37.65+00:46:5016:463,6
186WOJNIAK Joanna 823Open - Kobiety186K 18611:30DZIKI Z WESOŁEJ 00:00:0001:41:24.4001:41:24.40+00:47:3616:543,6
187TRYKA Agnieszka 812Open - Kobiety187K 18711:30DZIKI Z WESOŁEJ 00:00:0001:41:24.6501:41:24.65+00:47:3716:543,6
188TRACZYK Izabella 1016Open - Kobiety188K 18809:00 00:00:0001:41:29.4501:41:29.45+00:47:4116:543,5
188KOWALIK Renata 1051Open - Kobiety188K 18809:00 00:00:0001:41:29.4501:41:29.45+00:47:4116:543,5
190TOMANIAK Ewelina 1011Open - Kobiety190K 19009:00MORSJANIE KOZIENICE00:00:0001:41:29.7001:41:29.70+00:47:4216:543,5
191TALAGA Urszula 1057Open - Kobiety191K 19109:00 00:00:0001:41:29.8501:41:29.85+00:47:4216:543,5
192SIRAK Jagoda 759Open - Kobiety192K 19211:00 00:00:0001:41:40.7501:41:40.75+00:47:5316:563,5
193SIRAK Marta 780Open - Kobiety193K 19311:00 00:00:0001:41:41.5501:41:41.55+00:47:5416:563,5
194KOZAK Magdalena 1101Open - Kobiety194K 19409:3000:00:0001:41:59.3501:41:59.35+00:48:1116:593,5
195MICH Anna 1006Open - Kobiety195K 19509:00 00:00:0001:42:12.7001:42:12.70+00:48:2517:023,5
196KOWALSKA Wiktoria 1059Open - Kobiety196K 19609:00 00:00:0001:42:13.2001:42:13.20+00:48:2517:023,5
197ANDRZEJAK Magdalena 930Open - Kobiety197K 19712:0000:00:0001:42:19.3001:42:19.30+00:48:3117:033,5
198KUCHARSKA Monika 913Open - Kobiety198K 19812:00SHARK TEAM 00:00:0001:42:47.7001:42:47.70+00:49:0017:073,5
199WIRTEK-KONCA Joanna 1089Open - Kobiety199K 19909:3000:00:0001:43:26.3001:43:26.30+00:49:3817:143,5
200RĘKAWEK Marta 1106Open - Kobiety200K 20009:3000:00:0001:43:27.3501:43:27.35+00:49:3917:143,5
201CZECHOWSKA Elżbieta 1068Open - Kobiety201K 20109:00DZIKA FURIA00:00:0001:43:37.5001:43:37.50+00:49:4917:163,5
202WALASEK Małgorzata 1000Open - Kobiety202K 20209:00DZIKA FURIA00:00:0001:43:37.6001:43:37.60+00:49:5017:163,5
203SZCZEPANIAK Katarzyna 1024Open - Kobiety203K 20309:00 00:00:0001:43:59.3001:43:59.30+00:50:1117:193,5
204STARACHOWSKA Agnieszka 937Open - Kobiety204K 20412:30DZIKI ELKOM00:00:0001:44:27.1001:44:27.10+00:50:3917:243,4
205GAWLAK Elżbieta 944Open - Kobiety205K 20512:30DZIKI ELKOM00:00:0001:44:27.2001:44:27.20+00:50:3917:243,4
205ADAMCZYK Monika 950Open - Kobiety205K 20512:30DZIKI ELKOM00:00:0001:44:27.2001:44:27.20+00:50:3917:243,4
207ŁUCZAK Katarzyna 766Open - Kobiety207K 20711:00 00:00:0001:45:10.8001:45:10.80+00:51:2317:313,4
208MICHALSKA Małgorzata 777Open - Kobiety208K 20811:00 00:00:0001:45:11.7001:45:11.70+00:51:2417:313,4
209STĘPNIAK Wiktoria 714Open - Kobiety209K 20910:30 00:00:0001:46:03.2501:46:03.25+00:52:1517:403,4
210PUDZIANOWSKA Zuzanna 730Open - Kobiety210K 21010:30 00:00:0001:46:05.8001:46:05.80+00:52:1817:403,4
211SOJA Ola 697Open - Kobiety211K 21110:30 00:00:0001:46:17.4501:46:17.45+00:52:2917:423,4
212NAWROCKA Aleksandra 570Open - Kobiety212K 21210:00DZIKJOHN TEAM00:00:0001:51:26.3001:51:26.30+00:57:3818:343,2
212JOHN Róża 614Open - Kobiety212K 21210:00DZIKJOHN TEAM00:00:0001:51:26.3001:51:26.30+00:57:3818:343,2
214WLAZŁO Monika 694Open - Kobiety214K 21410:30 00:00:0001:54:46.2001:54:46.20+01:00:5819:073,1
215RADKOWSKA Marcelina 683Open - Kobiety215K 21510:30 00:00:0001:54:48.3501:54:48.35+01:01:0019:083,1
216KISIO Sylwia 826Open - Kobiety216K 21611:3000:00:0002:00:04.1502:00:04.15+01:06:1620:003,0
217DZIK Paulina 843Open - Kobiety217K 21711:30 00:00:0002:00:07.7002:00:07.70+01:06:2020:013,0
218PASEK Ewelina 818Open - Kobiety218K 21811:30 00:00:0002:01:39.1002:01:39.10+01:07:5120:163,0
219MATYSIAK Karolina 827Open - Kobiety219K 21911:3000:00:0002:01:42.6502:01:42.65+01:07:5520:173,0
220SZATAN Weronika 1155Open - Kobiety220K 22011:00DOMKI W SŁUPSKU00:00:0002:18:48.3502:18:48.35+01:25:0023:082,6
221SEREDYN Klaudia 1097Open - Kobiety221K 22109:3000:00:00   
Niesklasyfikowani
DNC- - 1063Open - Kobiety09:0000:00:0000:46:55.1500:46:55.150:007,7
Znaleziono 222 wynik(ów)